sensor_id;sensor_type;location;lat;lon;timestamp;pressure;altitude;pressure_sealevel;temperature
71960;BMP280;59832;51.146;14.024;2022-07-24T00:02:09;98871.25;;;15.89
71960;BMP280;59832;51.146;14.024;2022-07-24T00:04:36;98862.81;;;15.85
71960;BMP280;59832;51.146;14.024;2022-07-24T00:07:03;98870.88;;;15.83
71960;BMP280;59832;51.146;14.024;2022-07-24T00:09:29;98873.78;;;15.78
71960;BMP280;59832;51.146;14.024;2022-07-24T00:11:57;98877.47;;;15.81
71960;BMP280;59832;51.146;14.024;2022-07-24T00:14:25;98871.22;;;15.78
71960;BMP280;59832;51.146;14.024;2022-07-24T00:16:52;98866.81;;;15.75
71960;BMP280;59832;51.146;14.024;2022-07-24T00:19:18;98875.91;;;15.59
71960;BMP280;59832;51.146;14.024;2022-07-24T00:21:45;98875.81;;;15.48
71960;BMP280;59832;51.146;14.024;2022-07-24T00:24:12;98874.03;;;15.52
71960;BMP280;59832;51.146;14.024;2022-07-24T00:26:38;98875.88;;;15.55
71960;BMP280;59832;51.146;14.024;2022-07-24T00:29:04;98874.00;;;15.49
71960;BMP280;59832;51.146;14.024;2022-07-24T00:31:32;98881.38;;;15.54
71960;BMP280;59832;51.146;14.024;2022-07-24T00:33:59;98872.06;;;15.32
71960;BMP280;59832;51.146;14.024;2022-07-24T00:36:25;98882.22;;;15.21
71960;BMP280;59832;51.146;14.024;2022-07-24T00:38:52;98885.22;;;15.26
71960;BMP280;59832;51.146;14.024;2022-07-24T00:41:18;98889.59;;;15.22
71960;BMP280;59832;51.146;14.024;2022-07-24T00:44:02;98892.44;;;15.14
71960;BMP280;59832;51.146;14.024;2022-07-24T00:46:29;98893.25;;;15.28
71960;BMP280;59832;51.146;14.024;2022-07-24T00:48:56;98904.66;;;15.27
71960;BMP280;59832;51.146;14.024;2022-07-24T00:51:23;98895.13;;;15.32
71960;BMP280;59832;51.146;14.024;2022-07-24T00:53:49;98899.84;;;15.22
71960;BMP280;59832;51.146;14.024;2022-07-24T00:56:17;98903.84;;;15.23
71960;BMP280;59832;51.146;14.024;2022-07-24T00:58:44;98897.66;;;15.24
71960;BMP280;59832;51.146;14.024;2022-07-24T01:01:11;98894.00;;;15.29
71960;BMP280;59832;51.146;14.024;2022-07-24T01:03:38;98889.28;;;15.31
71960;BMP280;59832;51.146;14.024;2022-07-24T01:06:05;98893.56;;;15.16
71960;BMP280;59832;51.146;14.024;2022-07-24T01:08:33;98890.28;;;15.23
71960;BMP280;59832;51.146;14.024;2022-07-24T01:11:02;98894.41;;;15.27
71960;BMP280;59832;51.146;14.024;2022-07-24T01:13:29;98906.34;;;15.13
71960;BMP280;59832;51.146;14.024;2022-07-24T01:15:59;98906.53;;;14.94
71960;BMP280;59832;51.146;14.024;2022-07-24T01:18:26;98909.72;;;14.80
71960;BMP280;59832;51.146;14.024;2022-07-24T01:20:52;98911.53;;;14.79
71960;BMP280;59832;51.146;14.024;2022-07-24T01:23:19;98910.38;;;14.73
71960;BMP280;59832;51.146;14.024;2022-07-24T01:25:45;98914.09;;;14.76
71960;BMP280;59832;51.146;14.024;2022-07-24T01:28:12;98913.69;;;14.77
71960;BMP280;59832;51.146;14.024;2022-07-24T01:30:39;98914.34;;;14.67
71960;BMP280;59832;51.146;14.024;2022-07-24T01:33:05;98917.88;;;14.56
71960;BMP280;59832;51.146;14.024;2022-07-24T01:35:32;98911.59;;;14.50
71960;BMP280;59832;51.146;14.024;2022-07-24T01:37:59;98911.97;;;14.52
71960;BMP280;59832;51.146;14.024;2022-07-24T01:40:25;98914.66;;;14.29
71960;BMP280;59832;51.146;14.024;2022-07-24T01:42:51;98917.97;;;14.30
71960;BMP280;59832;51.146;14.024;2022-07-24T01:45:18;98916.94;;;14.38
71960;BMP280;59832;51.146;14.024;2022-07-24T01:47:45;98920.69;;;14.14
71960;BMP280;59832;51.146;14.024;2022-07-24T01:50:13;98921.84;;;14.20
71960;BMP280;59832;51.146;14.024;2022-07-24T01:52:39;98918.16;;;14.17
71960;BMP280;59832;51.146;14.024;2022-07-24T01:55:06;98920.03;;;13.94
71960;BMP280;59832;51.146;14.024;2022-07-24T01:57:34;98919.50;;;14.08
71960;BMP280;59832;51.146;14.024;2022-07-24T02:00:01;98930.38;;;14.01
71960;BMP280;59832;51.146;14.024;2022-07-24T02:02:28;98924.50;;;13.97
71960;BMP280;59832;51.146;14.024;2022-07-24T02:04:54;98931.81;;;13.99
71960;BMP280;59832;51.146;14.024;2022-07-24T02:07:20;98929.72;;;14.08
71960;BMP280;59832;51.146;14.024;2022-07-24T02:09:47;98922.28;;;13.96
71960;BMP280;59832;51.146;14.024;2022-07-24T02:12:13;98923.03;;;14.00
71960;BMP280;59832;51.146;14.024;2022-07-24T02:14:43;98921.53;;;13.95
71960;BMP280;59832;51.146;14.024;2022-07-24T02:17:09;98926.06;;;13.79
71960;BMP280;59832;51.146;14.024;2022-07-24T02:19:36;98931.56;;;13.81
71960;BMP280;59832;51.146;14.024;2022-07-24T02:22:02;98931.19;;;13.79
71960;BMP280;59832;51.146;14.024;2022-07-24T02:24:29;98932.28;;;13.82
71960;BMP280;59832;51.146;14.024;2022-07-24T02:26:55;98933.53;;;13.91
71960;BMP280;59832;51.146;14.024;2022-07-24T02:29:28;98936.56;;;13.97
71960;BMP280;59832;51.146;14.024;2022-07-24T02:31:56;98939.09;;;13.97
71960;BMP280;59832;51.146;14.024;2022-07-24T02:34:23;98933.94;;;13.93
71960;BMP280;59832;51.146;14.024;2022-07-24T02:36:49;98940.97;;;13.73
71960;BMP280;59832;51.146;14.024;2022-07-24T02:39:16;98949.31;;;13.70
71960;BMP280;59832;51.146;14.024;2022-07-24T02:41:42;98946.34;;;13.68
71960;BMP280;59832;51.146;14.024;2022-07-24T02:44:09;98940.78;;;13.86
71960;BMP280;59832;51.146;14.024;2022-07-24T02:46:36;98947.19;;;13.72
71960;BMP280;59832;51.146;14.024;2022-07-24T02:49:03;98953.69;;;13.70
71960;BMP280;59832;51.146;14.024;2022-07-24T02:51:30;98951.13;;;13.70
71960;BMP280;59832;51.146;14.024;2022-07-24T02:53:56;98947.56;;;13.52
71960;BMP280;59832;51.146;14.024;2022-07-24T02:56:23;98955.19;;;13.48
71960;BMP280;59832;51.146;14.024;2022-07-24T02:58:52;98949.72;;;13.50
71960;BMP280;59832;51.146;14.024;2022-07-24T03:01:19;98950.00;;;13.45
71960;BMP280;59832;51.146;14.024;2022-07-24T03:03:45;98956.88;;;13.41
71960;BMP280;59832;51.146;14.024;2022-07-24T03:06:12;98953.59;;;13.40
71960;BMP280;59832;51.146;14.024;2022-07-24T03:08:39;98956.03;;;13.33
71960;BMP280;59832;51.146;14.024;2022-07-24T03:11:05;98961.03;;;13.26
71960;BMP280;59832;51.146;14.024;2022-07-24T03:13:32;98969.38;;;13.23
71960;BMP280;59832;51.146;14.024;2022-07-24T03:15:59;98967.22;;;13.06
71960;BMP280;59832;51.146;14.024;2022-07-24T03:18:26;98969.56;;;13.14
71960;BMP280;59832;51.146;14.024;2022-07-24T03:20:52;98975.44;;;13.15
71960;BMP280;59832;51.146;14.024;2022-07-24T03:23:19;98969.00;;;13.02
71960;BMP280;59832;51.146;14.024;2022-07-24T03:25:45;98969.00;;;12.83
71960;BMP280;59832;51.146;14.024;2022-07-24T03:28:13;98969.78;;;12.87
71960;BMP280;59832;51.146;14.024;2022-07-24T03:30:39;98967.06;;;12.95
71960;BMP280;59832;51.146;14.024;2022-07-24T03:33:06;98965.22;;;12.96
71960;BMP280;59832;51.146;14.024;2022-07-24T03:35:32;98966.78;;;12.81
71960;BMP280;59832;51.146;14.024;2022-07-24T03:37:59;98971.88;;;12.81
71960;BMP280;59832;51.146;14.024;2022-07-24T03:40:25;98965.97;;;12.77
71960;BMP280;59832;51.146;14.024;2022-07-24T03:42:52;98957.94;;;12.78
71960;BMP280;59832;51.146;14.024;2022-07-24T03:45:18;98957.19;;;12.78
71960;BMP280;59832;51.146;14.024;2022-07-24T03:47:45;98958.16;;;12.70
71960;BMP280;59832;51.146;14.024;2022-07-24T03:50:12;98965.81;;;12.70
71960;BMP280;59832;51.146;14.024;2022-07-24T03:52:41;98955.22;;;12.68
71960;BMP280;59832;51.146;14.024;2022-07-24T03:55:08;98961.47;;;12.70
71960;BMP280;59832;51.146;14.024;2022-07-24T03:57:36;98967.63;;;12.69
71960;BMP280;59832;51.146;14.024;2022-07-24T04:00:04;98965.44;;;12.68
71960;BMP280;59832;51.146;14.024;2022-07-24T04:02:31;98965.03;;;12.85
71960;BMP280;59832;51.146;14.024;2022-07-24T04:04:58;98968.25;;;12.82
71960;BMP280;59832;51.146;14.024;2022-07-24T04:07:24;98965.84;;;12.89
71960;BMP280;59832;51.146;14.024;2022-07-24T04:09:54;98968.38;;;12.89
71960;BMP280;59832;51.146;14.024;2022-07-24T04:12:20;98973.69;;;12.80
71960;BMP280;59832;51.146;14.024;2022-07-24T04:14:46;98972.16;;;12.95
71960;BMP280;59832;51.146;14.024;2022-07-24T04:17:13;98969.41;;;13.04
71960;BMP280;59832;51.146;14.024;2022-07-24T04:19:39;98968.44;;;12.93
71960;BMP280;59832;51.146;14.024;2022-07-24T04:22:06;98971.22;;;13.03
71960;BMP280;59832;51.146;14.024;2022-07-24T04:24:33;98970.94;;;13.08
71960;BMP280;59832;51.146;14.024;2022-07-24T04:27:00;98967.88;;;13.22
71960;BMP280;59832;51.146;14.024;2022-07-24T04:29:26;98968.06;;;13.33
71960;BMP280;59832;51.146;14.024;2022-07-24T04:31:53;98967.00;;;13.34
71960;BMP280;59832;51.146;14.024;2022-07-24T04:34:19;98970.63;;;13.33
71960;BMP280;59832;51.146;14.024;2022-07-24T04:36:46;98974.25;;;13.32
71960;BMP280;59832;51.146;14.024;2022-07-24T04:39:12;98979.31;;;13.51
71960;BMP280;59832;51.146;14.024;2022-07-24T04:41:40;98978.91;;;13.68
71960;BMP280;59832;51.146;14.024;2022-07-24T04:44:06;98976.91;;;13.81
71960;BMP280;59832;51.146;14.024;2022-07-24T04:46:33;98975.28;;;13.95
71960;BMP280;59832;51.146;14.024;2022-07-24T04:48:59;98974.72;;;14.09
71960;BMP280;59832;51.146;14.024;2022-07-24T04:51:28;98975.88;;;14.11
71960;BMP280;59832;51.146;14.024;2022-07-24T04:53:55;98973.19;;;14.31
71960;BMP280;59832;51.146;14.024;2022-07-24T04:56:21;98979.16;;;14.38
71960;BMP280;59832;51.146;14.024;2022-07-24T04:58:48;98967.97;;;14.50
71960;BMP280;59832;51.146;14.024;2022-07-24T05:01:14;98973.84;;;14.54
71960;BMP280;59832;51.146;14.024;2022-07-24T05:03:41;98972.91;;;14.65
71960;BMP280;59832;51.146;14.024;2022-07-24T05:06:08;98978.94;;;14.84
71960;BMP280;59832;51.146;14.024;2022-07-24T05:08:34;98980.88;;;14.94
71960;BMP280;59832;51.146;14.024;2022-07-24T05:11:01;98986.56;;;15.13
71960;BMP280;59832;51.146;14.024;2022-07-24T05:13:27;98984.16;;;15.31
71960;BMP280;59832;51.146;14.024;2022-07-24T05:15:54;98993.84;;;15.48
71960;BMP280;59832;51.146;14.024;2022-07-24T05:18:21;98977.44;;;15.60
71960;BMP280;59832;51.146;14.024;2022-07-24T05:20:54;98984.59;;;15.88
71960;BMP280;59832;51.146;14.024;2022-07-24T05:23:24;98990.28;;;16.21
71960;BMP280;59832;51.146;14.024;2022-07-24T05:25:53;98986.66;;;16.33
71960;BMP280;59832;51.146;14.024;2022-07-24T05:28:23;98984.88;;;16.48
71960;BMP280;59832;51.146;14.024;2022-07-24T05:30:50;98974.69;;;16.65
71960;BMP280;59832;51.146;14.024;2022-07-24T05:33:19;98980.22;;;16.88
71960;BMP280;59832;51.146;14.024;2022-07-24T05:35:48;98968.09;;;17.03
71960;BMP280;59832;51.146;14.024;2022-07-24T05:38:18;98973.66;;;17.16
71960;BMP280;59832;51.146;14.024;2022-07-24T05:40:45;98968.84;;;17.57
71960;BMP280;59832;51.146;14.024;2022-07-24T05:43:14;98970.28;;;17.72
71960;BMP280;59832;51.146;14.024;2022-07-24T05:46:00;98973.97;;;17.67
71960;BMP280;59832;51.146;14.024;2022-07-24T05:48:36;98969.94;;;17.59
71960;BMP280;59832;51.146;14.024;2022-07-24T05:51:06;98969.19;;;17.66
71960;BMP280;59832;51.146;14.024;2022-07-24T05:53:39;98963.25;;;17.93
71960;BMP280;59832;51.146;14.024;2022-07-24T05:56:08;98964.72;;;17.91
71960;BMP280;59832;51.146;14.024;2022-07-24T05:58:40;98952.06;;;18.21
71960;BMP280;59832;51.146;14.024;2022-07-24T06:01:07;98961.25;;;18.33
71960;BMP280;59832;51.146;14.024;2022-07-24T06:03:41;98967.09;;;18.40
71960;BMP280;59832;51.146;14.024;2022-07-24T06:06:18;98960.13;;;18.30
71960;BMP280;59832;51.146;14.024;2022-07-24T06:08:47;98965.25;;;18.41
71960;BMP280;59832;51.146;14.024;2022-07-24T06:11:27;98969.97;;;18.53
71960;BMP280;59832;51.146;14.024;2022-07-24T06:13:59;98973.13;;;18.78
71960;BMP280;59832;51.146;14.024;2022-07-24T06:16:29;98972.34;;;18.85
71960;BMP280;59832;51.146;14.024;2022-07-24T06:19:01;98968.31;;;18.80
71960;BMP280;59832;51.146;14.024;2022-07-24T06:21:28;98978.09;;;19.03
71960;BMP280;59832;51.146;14.024;2022-07-24T06:23:57;98970.66;;;19.12
71960;BMP280;59832;51.146;14.024;2022-07-24T06:26:30;98973.84;;;19.27
71960;BMP280;59832;51.146;14.024;2022-07-24T06:29:30;98972.50;;;19.12
71960;BMP280;59832;51.146;14.024;2022-07-24T06:32:14;98975.19;;;19.42
71960;BMP280;59832;51.146;14.024;2022-07-24T06:35:11;98978.47;;;19.46
71960;BMP280;59832;51.146;14.024;2022-07-24T06:38:02;98972.44;;;19.59
71960;BMP280;59832;51.146;14.024;2022-07-24T06:40:34;98969.91;;;19.52
71960;BMP280;59832;51.146;14.024;2022-07-24T06:43:01;98977.72;;;19.83
71960;BMP280;59832;51.146;14.024;2022-07-24T06:45:32;98973.91;;;19.94
71960;BMP280;59832;51.146;14.024;2022-07-24T06:48:13;98971.63;;;20.00
71960;BMP280;59832;51.146;14.024;2022-07-24T06:50:41;98971.13;;;20.62
71960;BMP280;59832;51.146;14.024;2022-07-24T06:53:11;98971.47;;;20.41
71960;BMP280;59832;51.146;14.024;2022-07-24T06:55:48;98966.28;;;20.91
71960;BMP280;59832;51.146;14.024;2022-07-24T06:58:20;98971.34;;;20.71
71960;BMP280;59832;51.146;14.024;2022-07-24T07:00:49;98965.91;;;20.12
71960;BMP280;59832;51.146;14.024;2022-07-24T07:03:16;98970.44;;;20.35
71960;BMP280;59832;51.146;14.024;2022-07-24T07:05:47;98962.81;;;20.51
71960;BMP280;59832;51.146;14.024;2022-07-24T07:08:14;98963.44;;;20.82
71960;BMP280;59832;51.146;14.024;2022-07-24T07:10:46;98963.78;;;21.07
71960;BMP280;59832;51.146;14.024;2022-07-24T07:13:49;98965.19;;;21.31
71960;BMP280;59832;51.146;14.024;2022-07-24T07:16:16;98961.81;;;21.54
71960;BMP280;59832;51.146;14.024;2022-07-24T07:18:44;98955.97;;;21.50
71960;BMP280;59832;51.146;14.024;2022-07-24T07:21:14;98952.91;;;21.74
71960;BMP280;59832;51.146;14.024;2022-07-24T07:23:40;98958.34;;;21.80
71960;BMP280;59832;51.146;14.024;2022-07-24T07:26:23;98965.56;;;21.88
71960;BMP280;59832;51.146;14.024;2022-07-24T07:28:52;98972.47;;;21.95
71960;BMP280;59832;51.146;14.024;2022-07-24T07:31:29;98964.19;;;22.00
71960;BMP280;59832;51.146;14.024;2022-07-24T07:33:56;98965.47;;;21.92
71960;BMP280;59832;51.146;14.024;2022-07-24T07:36:25;98955.59;;;21.51
71960;BMP280;59832;51.146;14.024;2022-07-24T07:38:53;98963.72;;;20.87
71960;BMP280;59832;51.146;14.024;2022-07-24T07:41:30;98959.63;;;21.32
71960;BMP280;59832;51.146;14.024;2022-07-24T07:43:57;98968.03;;;21.17
71960;BMP280;59832;51.146;14.024;2022-07-24T07:46:29;98963.88;;;21.23
71960;BMP280;59832;51.146;14.024;2022-07-24T07:49:09;98969.19;;;21.35
71960;BMP280;59832;51.146;14.024;2022-07-24T07:51:43;98957.50;;;21.27
71960;BMP280;59832;51.146;14.024;2022-07-24T07:54:15;98954.44;;;21.72
71960;BMP280;59832;51.146;14.024;2022-07-24T07:56:43;98960.00;;;21.90
71960;BMP280;59832;51.146;14.024;2022-07-24T07:59:21;98954.75;;;22.10
71960;BMP280;59832;51.146;14.024;2022-07-24T08:01:58;98946.84;;;22.17
71960;BMP280;59832;51.146;14.024;2022-07-24T08:04:29;98957.03;;;22.56
71960;BMP280;59832;51.146;14.024;2022-07-24T08:06:57;98954.47;;;22.40
71960;BMP280;59832;51.146;14.024;2022-07-24T08:09:25;98961.72;;;22.13
71960;BMP280;59832;51.146;14.024;2022-07-24T08:12:12;98959.84;;;22.61
71960;BMP280;59832;51.146;14.024;2022-07-24T08:14:41;98962.94;;;22.73
71960;BMP280;59832;51.146;14.024;2022-07-24T08:17:12;98961.25;;;23.11
71960;BMP280;59832;51.146;14.024;2022-07-24T08:19:40;98960.78;;;23.41
71960;BMP280;59832;51.146;14.024;2022-07-24T08:22:16;98949.97;;;23.01
71960;BMP280;59832;51.146;14.024;2022-07-24T08:24:44;98958.88;;;23.29
71960;BMP280;59832;51.146;14.024;2022-07-24T08:27:30;98958.53;;;22.41
71960;BMP280;59832;51.146;14.024;2022-07-24T08:30:06;98969.09;;;22.63
71960;BMP280;59832;51.146;14.024;2022-07-24T08:32:33;98958.22;;;22.84
71960;BMP280;59832;51.146;14.024;2022-07-24T08:35:06;98952.91;;;23.45
71960;BMP280;59832;51.146;14.024;2022-07-24T08:37:40;98955.84;;;23.97
71960;BMP280;59832;51.146;14.024;2022-07-24T08:40:10;98954.44;;;24.30
71960;BMP280;59832;51.146;14.024;2022-07-24T08:42:37;98944.50;;;23.12
71960;BMP280;59832;51.146;14.024;2022-07-24T08:45:14;98954.19;;;22.67
71960;BMP280;59832;51.146;14.024;2022-07-24T08:47:44;98949.28;;;22.56
71960;BMP280;59832;51.146;14.024;2022-07-24T08:50:18;98952.38;;;22.80
71960;BMP280;59832;51.146;14.024;2022-07-24T08:52:54;98949.25;;;23.42
71960;BMP280;59832;51.146;14.024;2022-07-24T08:55:23;98936.34;;;23.26
71960;BMP280;59832;51.146;14.024;2022-07-24T08:57:52;98931.63;;;23.21
71960;BMP280;59832;51.146;14.024;2022-07-24T09:00:20;98933.94;;;23.19
71960;BMP280;59832;51.146;14.024;2022-07-24T09:02:47;98931.38;;;23.57
71960;BMP280;59832;51.146;14.024;2022-07-24T09:05:14;98932.88;;;23.70
71960;BMP280;59832;51.146;14.024;2022-07-24T09:08:06;98929.47;;;23.32
71960;BMP280;59832;51.146;14.024;2022-07-24T09:14:13;98935.66;;;23.63
71960;BMP280;59832;51.146;14.024;2022-07-24T09:17:14;98936.75;;;22.96
71960;BMP280;59832;51.146;14.024;2022-07-24T09:19:56;98936.75;;;22.96
71960;BMP280;59832;51.146;14.024;2022-07-24T09:22:24;98938.03;;;23.04
71960;BMP280;59832;51.146;14.024;2022-07-24T09:25:27;98923.03;;;22.95
71960;BMP280;59832;51.146;14.024;2022-07-24T09:28:03;98931.28;;;23.85
71960;BMP280;59832;51.146;14.024;2022-07-24T09:31:06;98928.69;;;23.98
71960;BMP280;59832;51.146;14.024;2022-07-24T09:34:11;98931.19;;;24.02
71960;BMP280;59832;51.146;14.024;2022-07-24T09:36:40;98928.44;;;24.18
71960;BMP280;59832;51.146;14.024;2022-07-24T09:39:19;98928.56;;;24.14
71960;BMP280;59832;51.146;14.024;2022-07-24T09:42:16;98917.00;;;24.15
71960;BMP280;59832;51.146;14.024;2022-07-24T09:44:44;98916.44;;;24.33
71960;BMP280;59832;51.146;14.024;2022-07-24T09:47:23;98921.41;;;24.74
71960;BMP280;59832;51.146;14.024;2022-07-24T09:49:53;98909.44;;;25.07
71960;BMP280;59832;51.146;14.024;2022-07-24T09:52:32;98921.81;;;24.94
71960;BMP280;59832;51.146;14.024;2022-07-24T09:55:19;98910.34;;;25.13
71960;BMP280;59832;51.146;14.024;2022-07-24T09:57:46;98910.91;;;25.08
71960;BMP280;59832;51.146;14.024;2022-07-24T10:00:21;98909.78;;;25.18
71960;BMP280;59832;51.146;14.024;2022-07-24T10:02:48;98912.78;;;25.08
71960;BMP280;59832;51.146;14.024;2022-07-24T10:05:20;98915.81;;;24.85
71960;BMP280;59832;51.146;14.024;2022-07-24T10:08:03;98912.88;;;25.26
71960;BMP280;59832;51.146;14.024;2022-07-24T10:10:35;98923.81;;;25.52
71960;BMP280;59832;51.146;14.024;2022-07-24T10:13:05;98917.22;;;24.98
71960;BMP280;59832;51.146;14.024;2022-07-24T10:15:50;98913.31;;;24.60
71960;BMP280;59832;51.146;14.024;2022-07-24T10:18:19;98915.88;;;24.94
71960;BMP280;59832;51.146;14.024;2022-07-24T10:20:46;98921.06;;;24.94
71960;BMP280;59832;51.146;14.024;2022-07-24T10:23:24;98914.84;;;25.13
71960;BMP280;59832;51.146;14.024;2022-07-24T10:26:05;98906.56;;;25.45
71960;BMP280;59832;51.146;14.024;2022-07-24T10:28:50;98911.84;;;25.24
71960;BMP280;59832;51.146;14.024;2022-07-24T10:31:21;98915.91;;;25.25
71960;BMP280;59832;51.146;14.024;2022-07-24T10:33:53;98922.75;;;25.00
71960;BMP280;59832;51.146;14.024;2022-07-24T10:36:27;98917.78;;;25.64
71960;BMP280;59832;51.146;14.024;2022-07-24T10:39:09;98913.94;;;26.50
71960;BMP280;59832;51.146;14.024;2022-07-24T10:41:37;98910.59;;;26.68
71960;BMP280;59832;51.146;14.024;2022-07-24T10:44:25;98907.94;;;26.86
71960;BMP280;59832;51.146;14.024;2022-07-24T10:47:01;98909.09;;;25.58
71960;BMP280;59832;51.146;14.024;2022-07-24T10:49:39;98906.00;;;26.44
71960;BMP280;59832;51.146;14.024;2022-07-24T10:52:21;98906.13;;;25.77
71960;BMP280;59832;51.146;14.024;2022-07-24T10:58:02;98893.22;;;25.92
71960;BMP280;59832;51.146;14.024;2022-07-24T11:00:34;98902.06;;;26.40
71960;BMP280;59832;51.146;14.024;2022-07-24T11:03:18;98893.78;;;26.05
71960;BMP280;59832;51.146;14.024;2022-07-24T11:06:09;98879.28;;;25.68
71960;BMP280;59832;51.146;14.024;2022-07-24T11:08:40;98887.25;;;25.82
71960;BMP280;59832;51.146;14.024;2022-07-24T11:11:27;98885.91;;;26.78
71960;BMP280;59832;51.146;14.024;2022-07-24T11:14:01;98880.94;;;26.11
71960;BMP280;59832;51.146;14.024;2022-07-24T11:16:33;98876.16;;;26.87
71960;BMP280;59832;51.146;14.024;2022-07-24T11:21:47;98882.34;;;26.99
71960;BMP280;59832;51.146;14.024;2022-07-24T11:27:24;98874.91;;;25.65
71960;BMP280;59832;51.146;14.024;2022-07-24T11:30:09;98877.78;;;26.76
71960;BMP280;59832;51.146;14.024;2022-07-24T11:32:41;98879.00;;;26.38
71960;BMP280;59832;51.146;14.024;2022-07-24T11:35:09;98871.00;;;26.60
71960;BMP280;59832;51.146;14.024;2022-07-24T11:37:37;98869.59;;;26.92
71960;BMP280;59832;51.146;14.024;2022-07-24T11:40:06;98863.91;;;26.51
71960;BMP280;59832;51.146;14.024;2022-07-24T11:42:37;98861.69;;;26.77
71960;BMP280;59832;51.146;14.024;2022-07-24T11:45:10;98862.81;;;27.18
71960;BMP280;59832;51.146;14.024;2022-07-24T11:47:39;98864.38;;;26.92
71960;BMP280;59832;51.146;14.024;2022-07-24T11:50:10;98862.63;;;26.98
71960;BMP280;59832;51.146;14.024;2022-07-24T11:52:43;98852.63;;;27.67
71960;BMP280;59832;51.146;14.024;2022-07-24T11:55:22;98853.84;;;27.66
71960;BMP280;59832;51.146;14.024;2022-07-24T11:57:56;98856.19;;;27.79
71960;BMP280;59832;51.146;14.024;2022-07-24T12:00:44;98858.31;;;28.19
71960;BMP280;59832;51.146;14.024;2022-07-24T12:03:11;98855.25;;;28.49
71960;BMP280;59832;51.146;14.024;2022-07-24T12:05:47;98856.69;;;27.54
71960;BMP280;59832;51.146;14.024;2022-07-24T12:08:20;98849.44;;;27.72
71960;BMP280;59832;51.146;14.024;2022-07-24T12:10:57;98846.09;;;27.24
71960;BMP280;59832;51.146;14.024;2022-07-24T12:13:25;98844.78;;;27.29
71960;BMP280;59832;51.146;14.024;2022-07-24T12:15:52;98845.38;;;27.24
71960;BMP280;59832;51.146;14.024;2022-07-24T12:18:20;98834.31;;;28.20
71960;BMP280;59832;51.146;14.024;2022-07-24T12:20:59;98837.84;;;28.32
71960;BMP280;59832;51.146;14.024;2022-07-24T12:23:28;98823.88;;;28.84
71960;BMP280;59832;51.146;14.024;2022-07-24T12:25:56;98823.03;;;28.29
71960;BMP280;59832;51.146;14.024;2022-07-24T12:28:25;98831.41;;;28.04
71960;BMP280;59832;51.146;14.024;2022-07-24T12:31:06;98816.88;;;28.46
71960;BMP280;59832;51.146;14.024;2022-07-24T12:33:53;98815.50;;;27.63
71960;BMP280;59832;51.146;14.024;2022-07-24T12:36:21;98809.72;;;28.27
71960;BMP280;59832;51.146;14.024;2022-07-24T12:38:53;98810.88;;;28.26
71960;BMP280;59832;51.146;14.024;2022-07-24T12:41:23;98805.00;;;29.00
71960;BMP280;59832;51.146;14.024;2022-07-24T12:44:00;98808.69;;;27.95
71960;BMP280;59832;51.146;14.024;2022-07-24T12:46:36;98805.25;;;28.04
71960;BMP280;59832;51.146;14.024;2022-07-24T12:49:14;98809.41;;;28.39
71960;BMP280;59832;51.146;14.024;2022-07-24T12:56:46;98796.00;;;29.98
71960;BMP280;59832;51.146;14.024;2022-07-24T12:59:30;98789.53;;;29.68
71960;BMP280;59832;51.146;14.024;2022-07-24T13:01:58;98784.41;;;29.79
71960;BMP280;59832;51.146;14.024;2022-07-24T13:04:26;98782.94;;;28.52
71960;BMP280;59832;51.146;14.024;2022-07-24T13:06:56;98781.06;;;28.87
71960;BMP280;59832;51.146;14.024;2022-07-24T13:09:30;98778.66;;;28.69
71960;BMP280;59832;51.146;14.024;2022-07-24T13:12:15;98774.03;;;28.29
71960;BMP280;59832;51.146;14.024;2022-07-24T13:14:50;98783.50;;;28.41
71960;BMP280;59832;51.146;14.024;2022-07-24T13:17:17;98782.72;;;28.55
71960;BMP280;59832;51.146;14.024;2022-07-24T13:19:51;98764.81;;;28.34
71960;BMP280;59832;51.146;14.024;2022-07-24T13:22:24;98765.28;;;27.74
71960;BMP280;59832;51.146;14.024;2022-07-24T13:24:53;98763.19;;;27.01
71960;BMP280;59832;51.146;14.024;2022-07-24T13:27:27;98768.03;;;26.94
71960;BMP280;59832;51.146;14.024;2022-07-24T13:30:17;98764.78;;;26.99
71960;BMP280;59832;51.146;14.024;2022-07-24T13:32:49;98769.38;;;27.13
71960;BMP280;59832;51.146;14.024;2022-07-24T13:35:18;98753.31;;;27.29
71960;BMP280;59832;51.146;14.024;2022-07-24T13:37:46;98749.94;;;27.67
71960;BMP280;59832;51.146;14.024;2022-07-24T13:40:34;98750.19;;;27.54
71960;BMP280;59832;51.146;14.024;2022-07-24T13:43:02;98737.94;;;26.98
71960;BMP280;59832;51.146;14.024;2022-07-24T13:45:28;98735.41;;;26.89
71960;BMP280;59832;51.146;14.024;2022-07-24T13:47:55;98735.50;;;27.18
71960;BMP280;59832;51.146;14.024;2022-07-24T13:50:24;98734.94;;;27.38
71960;BMP280;59832;51.146;14.024;2022-07-24T13:53:11;98732.66;;;27.31
71960;BMP280;59832;51.146;14.024;2022-07-24T13:55:38;98731.56;;;26.99
71960;BMP280;59832;51.146;14.024;2022-07-24T13:58:05;98730.56;;;27.20
71960;BMP280;59832;51.146;14.024;2022-07-24T14:00:31;98725.81;;;27.34
71960;BMP280;59832;51.146;14.024;2022-07-24T14:02:58;98717.38;;;27.53
71960;BMP280;59832;51.146;14.024;2022-07-24T14:05:28;98723.91;;;27.19
71960;BMP280;59832;51.146;14.024;2022-07-24T14:07:55;98714.44;;;27.22
71960;BMP280;59832;51.146;14.024;2022-07-24T14:10:22;98723.72;;;27.23
71960;BMP280;59832;51.146;14.024;2022-07-24T14:12:48;98707.13;;;27.50
71960;BMP280;59832;51.146;14.024;2022-07-24T14:15:18;98717.38;;;27.53
71960;BMP280;59832;51.146;14.024;2022-07-24T14:17:49;98707.53;;;27.48
71960;BMP280;59832;51.146;14.024;2022-07-24T14:20:16;98707.94;;;27.56
71960;BMP280;59832;51.146;14.024;2022-07-24T14:22:43;98703.06;;;27.63
71960;BMP280;59832;51.146;14.024;2022-07-24T14:25:28;98704.69;;;27.90
71960;BMP280;59832;51.146;14.024;2022-07-24T14:28:01;98703.97;;;27.89
71960;BMP280;59832;51.146;14.024;2022-07-24T14:30:39;98705.34;;;28.20
71960;BMP280;59832;51.146;14.024;2022-07-24T14:33:15;98706.28;;;28.17
71960;BMP280;59832;51.146;14.024;2022-07-24T14:35:49;98700.16;;;28.05
71960;BMP280;59832;51.146;14.024;2022-07-24T14:38:19;98698.81;;;27.95